Terminal Aerodrome Forecast
Issued by NWS

Home | Current Version | Previous Version | Text Only | Print | Product List | Glossary On
Versions: 1 2 3 4 5 6 7 8 9 10 11 12 13
000
FTUS41 KALY 290520
TAFPSF
TAF
KPSF 290520Z 2906/3006 00000KT 6SM BR FEW250
     FM290700 00000KT 4SM BR SCT003 SCT250
      TEMPO 2908/2910 1 1/2SM BR BKN003
     FM291100 VRB03KT 6SM BR BKN120
     FM291700 18008KT P6SM VCSH SCT040 BKN080
     FM292300 16004KT P6SM SCT035 BKN150=

USA.gov is the U.S. government's official web portal to all federal, state and local government web resources and services.